Time;durP1;ratioP1;P1;durP2;ratioP2;P2;SDS_P1;SDS_P2;PMS_P1;PMS_P2;Temp;Humidity;BMP_temperature;BMP_pressure;BME280_temperature;BME280_humidity;BME280_pressure;Samples;Min_cycle;Max_cycle;Signal;HPM_P1;HPM_P2
2023/09/27 00:01:17;;;;;;;9.77;4.30;;;13.40;98.00;;;;;;4972887;28;20468;-70
2023/09/27 00:03:44;;;;;;;10.00;4.70;;;13.60;98.00;;;;;;4973096;28;20959;-71
2023/09/27 00:06:12;;;;;;;9.00;4.77;;;13.60;98.00;;;;;;4972902;28;20490;-71
2023/09/27 00:08:41;;;;;;;7.70;4.53;;;13.50;98.00;;;;;;4955982;28;20457;-70
2023/09/27 00:11:08;;;;;;;8.90;4.40;;;13.60;98.00;;;;;;4972901;28;21069;-70
2023/09/27 00:13:35;;;;;;;7.03;3.90;;;13.50;98.00;;;;;;4955789;28;20513;-70
2023/09/27 00:16:03;;;;;;;9.43;4.77;;;13.40;98.00;;;;;;4955857;28;20454;-70
2023/09/27 00:18:30;;;;;;;7.23;4.33;;;13.50;98.00;;;;;;4972989;28;20461;-71
2023/09/27 00:21:00;;;;;;;6.83;3.80;;;13.40;98.00;;;;;;4972839;28;20449;-71
2023/09/27 00:23:27;;;;;;;6.30;3.90;;;13.50;98.00;;;;;;4972858;28;20453;-70
2023/09/27 00:25:55;;;;;;;8.60;4.40;;;13.60;98.00;;;;;;4972851;28;20481;-70
2023/09/27 00:28:22;;;;;;;7.10;4.43;;;13.50;98.00;;;;;;4973123;28;20465;-69
2023/09/27 00:30:51;;;;;;;6.70;4.03;;;13.40;98.00;;;;;;4972649;28;20489;-70
2023/09/27 00:33:18;;;;;;;7.30;4.40;;;13.40;98.00;;;;;;4972253;28;20457;-69
2023/09/27 00:35:49;;;;;;;8.00;4.40;;;13.30;98.00;;;;;;4972240;28;20454;-70
2023/09/27 00:38:16;;;;;;;7.97;4.53;;;13.30;98.00;;;;;;4972482;28;20500;-70
2023/09/27 00:40:47;;;;;;;8.97;4.87;;;13.20;98.00;;;;;;4954974;28;20867;-71
2023/09/27 00:43:28;;;;;;;8.13;4.40;;;13.30;98.00;;;;;;4972655;28;20869;-69
2023/09/27 00:46:00;;;;;;;9.00;4.97;;;13.30;98.00;;;;;;4972538;28;21037;-70
2023/09/27 00:48:27;;;;;;;8.50;4.37;;;13.10;98.00;;;;;;4972815;28;20452;-70
2023/09/27 00:50:55;;;;;;;8.33;4.70;;;13.10;98.00;;;;;;4972317;28;20836;-71
2023/09/27 00:53:24;;;;;;;8.33;4.10;;;13.20;98.00;;;;;;4972958;28;20453;-69
2023/09/27 00:55:52;;;;;;;7.60;4.20;;;12.90;98.00;;;;;;4972292;28;20484;-70
2023/09/27 00:58:20;;;;;;;11.00;5.13;;;12.70;98.00;;;;;;4972676;28;20461;-72
2023/09/27 01:00:51;;;;;;;7.07;4.17;;;12.60;98.00;;;;;;4973510;28;20456;-70
2023/09/27 01:03:19;;;;;;;6.80;4.47;;;12.60;98.00;;;;;;4976323;28;20955;-70
2023/09/27 01:05:47;;;;;;;9.10;4.70;;;12.70;98.00;;;;;;4976065;28;20480;-71
2023/09/27 01:08:14;;;;;;;7.70;4.33;;;12.80;98.00;;;;;;4976465;28;20453;-71
2023/09/27 01:10:41;;;;;;;8.30;4.93;;;12.70;98.00;;;;;;4976256;28;20534;-70
2023/09/27 01:13:14;;;;;;;7.60;4.37;;;12.70;98.00;;;;;;4976270;28;20970;-70
2023/09/27 01:15:42;;;;;;;9.20;4.60;;;12.70;98.00;;;;;;4975770;28;20460;-73
2023/09/27 01:18:11;;;;;;;11.70;5.17;;;12.70;98.00;;;;;;4976642;28;20474;-71
2023/09/27 01:20:38;;;;;;;9.23;5.20;;;12.70;98.00;;;;;;4975987;28;20457;-71
2023/09/27 01:23:07;;;;;;;8.10;4.40;;;12.70;98.00;;;;;;4976563;28;20936;-69
2023/09/27 01:25:35;;;;;;;8.90;5.10;;;12.70;98.00;;;;;;4975882;28;20464;-70
2023/09/27 01:28:04;;;;;;;8.27;4.53;;;12.70;98.00;;;;;;4975505;28;20468;-70
2023/09/27 01:30:37;;;;;;;8.10;4.30;;;12.50;98.00;;;;;;4975816;28;20465;-70
2023/09/27 01:33:06;;;;;;;7.50;4.17;;;12.70;98.00;;;;;;4958544;28;20534;-70
2023/09/27 01:35:34;;;;;;;5.90;3.83;;;13.00;98.00;;;;;;4975599;28;20832;-69
2023/09/27 01:38:02;;;;;;;7.90;4.30;;;13.20;98.00;;;;;;4958376;28;20540;-70
2023/09/27 01:40:31;;;;;;;9.07;4.47;;;13.10;98.00;;;;;;4957995;28;20473;-70
2023/09/27 01:42:58;;;;;;;9.00;4.80;;;13.20;98.00;;;;;;4975418;28;20515;-71
2023/09/27 01:45:25;;;;;;;8.70;4.87;;;13.10;98.00;;;;;;4958236;28;20456;-70
2023/09/27 01:47:55;;;;;;;8.37;4.30;;;13.00;98.00;;;;;;4975286;28;20482;-70
2023/09/27 01:50:25;;;;;;;9.67;4.90;;;12.80;98.00;;;;;;4975311;28;20958;-71
2023/09/27 01:52:52;;;;;;;7.63;4.50;;;12.60;98.00;;;;;;4975402;28;20460;-70
2023/09/27 01:55:19;;;;;;;9.03;4.47;;;12.50;98.00;;;;;;4974387;28;20524;-70
2023/09/27 01:57:50;;;;;;;10.87;5.07;;;12.70;98.00;;;;;;4975287;28;20469;-71
2023/09/27 02:00:19;;;;;;;7.10;4.03;;;12.80;98.00;;;;;;4975198;28;20464;-70
2023/09/27 02:02:49;;;;;;;10.20;4.23;;;12.70;98.00;;;;;;4974891;28;20460;-69
2023/09/27 02:05:16;;;;;;;9.93;4.27;;;12.40;98.00;;;;;;4975075;28;20460;-70
2023/09/27 02:07:43;;;;;;;7.50;4.17;;;12.20;98.00;;;;;;4974897;28;20513;-69
2023/09/27 02:10:11;;;;;;;8.70;4.83;;;12.30;98.00;;;;;;4975245;28;20457;-72
2023/09/27 02:12:39;;;;;;;9.80;4.60;;;12.10;98.00;;;;;;4974741;28;20531;-70
2023/09/27 02:15:10;;;;;;;8.97;4.73;;;12.10;98.00;;;;;;4975140;28;20488;-71
2023/09/27 02:17:38;;;;;;;9.53;4.70;;;12.10;98.00;;;;;;4957257;28;20653;-70
2023/09/27 02:20:10;;;;;;;8.30;4.70;;;12.20;98.00;;;;;;4975084;28;20470;-70
2023/09/27 02:22:37;;;;;;;7.97;4.73;;;12.10;98.00;;;;;;4974537;28;20460;-72
2023/09/27 02:25:11;;;;;;;8.60;4.90;;;12.00;98.00;;;;;;4974873;28;20911;-69
2023/09/27 02:27:38;;;;;;;8.80;4.30;;;12.10;98.00;;;;;;4974652;28;20878;-71
2023/09/27 02:30:11;;;;;;;9.93;4.30;;;12.20;98.00;;;;;;4974963;28;20453;-70
2023/09/27 02:32:38;;;;;;;8.73;4.43;;;12.30;98.00;;;;;;4974690;28;20493;-69
2023/09/27 02:35:06;;;;;;;8.33;4.67;;;12.50;98.00;;;;;;4974965;28;20917;-70
2023/09/27 02:37:33;;;;;;;7.00;4.07;;;12.50;98.00;;;;;;4974606;28;20547;-70
2023/09/27 02:40:00;;;;;;;7.57;4.27;;;12.50;98.00;;;;;;4957463;28;20483;-70
2023/09/27 02:42:27;;;;;;;12.13;4.53;;;12.60;98.00;;;;;;4974501;28;20453;-69
2023/09/27 02:44:55;;;;;;;7.83;4.47;;;12.50;98.00;;;;;;4974509;28;20457;-69
2023/09/27 02:47:24;;;;;;;11.90;4.20;;;12.40;98.00;;;;;;4974587;28;20547;-70
2023/09/27 02:49:51;;;;;;;15.43;4.10;;;12.40;98.00;;;;;;4957204;28;20477;-69
2023/09/27 02:52:19;;;;;;;7.70;4.07;;;12.40;98.00;;;;;;4957505;28;20548;-70
2023/09/27 02:54:47;;;;;;;7.17;4.13;;;12.50;98.00;;;;;;4974432;28;20940;-69
2023/09/27 02:57:14;;;;;;;8.90;4.30;;;12.30;98.00;;;;;;4974363;28;20862;-70
2023/09/27 02:59:41;;;;;;;6.40;3.87;;;12.30;98.00;;;;;;4974243;28;21051;-71
2023/09/27 03:02:08;;;;;;;6.40;3.93;;;12.40;98.00;;;;;;4974257;28;20451;-70
2023/09/27 03:04:40;;;;;;;8.53;4.80;;;12.40;98.00;;;;;;4974443;28;20458;-70
2023/09/27 03:07:08;;;;;;;7.80;4.40;;;12.10;98.00;;;;;;4974183;28;20982;-69
2023/09/27 03:09:36;;;;;;;8.97;4.57;;;11.90;98.00;;;;;;4974052;28;20536;-70
2023/09/27 03:12:04;;;;;;;7.17;4.20;;;11.90;98.00;;;;;;4957045;28;20541;-70
2023/09/27 03:14:32;;;;;;;9.70;4.40;;;12.00;98.00;;;;;;4974000;28;20468;-69
2023/09/27 03:17:00;;;;;;;7.43;4.10;;;11.90;98.00;;;;;;4973700;28;20952;-70
2023/09/27 03:19:27;;;;;;;5.50;3.53;;;12.00;98.00;;;;;;4974012;28;20462;-69
2023/09/27 03:21:56;;;;;;;7.77;4.20;;;12.20;98.00;;;;;;4973616;28;20449;-70
2023/09/27 03:24:25;;;;;;;8.77;4.40;;;12.20;98.00;;;;;;4972850;28;20455;-69
2023/09/27 03:26:52;;;;;;;7.90;4.03;;;12.10;98.00;;;;;;4956654;28;20506;-70
2023/09/27 03:29:20;;;;;;;16.17;4.57;;;12.10;98.00;;;;;;4973791;28;20456;-69
2023/09/27 03:31:47;;;;;;;7.30;4.50;;;12.00;98.00;;;;;;4956529;28;20465;-70
2023/09/27 03:34:14;;;;;;;7.67;4.10;;;11.90;98.00;;;;;;4973393;28;20466;-71
2023/09/27 03:36:43;;;;;;;6.57;3.90;;;11.80;98.00;;;;;;4973546;28;20465;-70
2023/09/27 03:39:12;;;;;;;7.50;4.17;;;11.90;98.00;;;;;;4973274;28;20469;-71
2023/09/27 03:41:40;;;;;;;7.90;4.40;;;12.00;98.00;;;;;;4973231;28;20451;-70
2023/09/27 03:44:10;;;;;;;8.40;4.37;;;12.00;98.00;;;;;;4973376;28;20506;-69
2023/09/27 03:46:37;;;;;;;7.43;4.13;;;12.00;98.00;;;;;;4973061;28;21040;-70
2023/09/27 03:49:06;;;;;;;9.90;4.57;;;12.10;98.00;;;;;;4956122;28;20456;-71
2023/09/27 03:51:35;;;;;;;8.07;4.53;;;12.30;98.00;;;;;;4973237;28;20518;-71
2023/09/27 03:54:02;;;;;;;8.57;4.20;;;12.10;98.00;;;;;;4972965;28;20460;-70
2023/09/27 03:56:31;;;;;;;7.20;4.00;;;12.00;98.00;;;;;;4972913;28;20464;-70
2023/09/27 03:58:58;;;;;;;7.13;4.10;;;11.70;98.00;;;;;;4972893;28;20461;-70
2023/09/27 04:01:25;;;;;;;8.13;4.77;;;11.70;98.00;;;;;;4973035;28;20469;-70
2023/09/27 04:03:53;;;;;;;8.10;4.40;;;11.70;98.00;;;;;;4973008;28;20459;-69
2023/09/27 04:06:20;;;;;;;6.80;3.90;;;11.70;98.00;;;;;;4955860;28;20499;-69
2023/09/27 04:08:47;;;;;;;8.00;4.30;;;11.90;98.00;;;;;;4972903;28;20951;-72
2023/09/27 04:11:14;;;;;;;7.30;4.50;;;12.10;98.00;;;;;;4972981;28;20455;-70
2023/09/27 04:13:43;;;;;;;9.00;4.03;;;11.80;98.00;;;;;;4973018;28;20460;-70
2023/09/27 04:16:10;;;;;;;7.20;4.47;;;11.80;98.00;;;;;;4973075;28;20468;-69
2023/09/27 04:18:39;;;;;;;9.77;4.83;;;11.50;98.00;;;;;;4956123;28;20464;-69
2023/09/27 04:21:07;;;;;;;9.50;4.67;;;11.40;98.00;;;;;;4955753;28;20457;-73
2023/09/27 04:23:37;;;;;;;9.70;4.57;;;11.40;98.00;;;;;;4973144;28;20463;-69
2023/09/27 04:26:06;;;;;;;7.67;4.30;;;11.30;98.00;;;;;;4955611;28;20465;-69
2023/09/27 04:28:34;;;;;;;9.17;4.23;;;11.20;98.00;;;;;;4972919;28;20583;-69
2023/09/27 04:31:04;;;;;;;8.73;4.70;;;11.20;98.00;;;;;;4972680;28;20468;-71
2023/09/27 04:33:31;;;;;;;11.70;4.50;;;11.30;98.00;;;;;;4973005;28;20505;-70
2023/09/27 04:35:59;;;;;;;9.63;4.50;;;11.10;98.00;;;;;;4976061;28;20475;-70
2023/09/27 04:38:26;;;;;;;9.20;4.90;;;11.30;98.00;;;;;;4976901;28;20463;-71
2023/09/27 04:40:53;;;;;;;8.90;4.47;;;11.10;98.00;;;;;;4977305;28;20939;-69
2023/09/27 04:43:20;;;;;;;11.10;4.90;;;11.10;98.00;;;;;;4943992;28;20459;-69
2023/09/27 04:45:49;;;;;;;9.67;4.80;;;11.30;98.00;;;;;;4976681;28;20464;-69
2023/09/27 04:48:18;;;;;;;8.77;4.67;;;11.30;98.00;;;;;;4976593;28;20497;-70
2023/09/27 04:50:45;;;;;;;7.43;4.43;;;11.20;98.00;;;;;;4976736;28;20462;-69
2023/09/27 04:53:12;;;;;;;8.63;4.90;;;11.40;98.00;;;;;;4943295;28;20937;-70
2023/09/27 04:55:42;;;;;;;10.07;4.47;;;11.40;98.00;;;;;;4976538;28;20456;-70
2023/09/27 04:58:09;;;;;;;8.80;4.63;;;11.30;98.00;;;;;;4959648;28;20466;-70
2023/09/27 05:00:36;;;;;;;9.20;5.10;;;11.50;98.00;;;;;;4976511;28;20972;-71
2023/09/27 05:03:04;;;;;;;9.40;4.93;;;11.40;98.00;;;;;;4976289;28;20466;-69
2023/09/27 05:05:32;;;;;;;9.20;4.50;;;11.10;98.00;;;;;;4976277;28;20453;-69
2023/09/27 05:07:59;;;;;;;9.00;4.70;;;10.90;98.00;;;;;;4976160;28;20825;-69
2023/09/27 05:10:26;;;;;;;12.40;4.83;;;10.80;98.00;;;;;;4976313;28;20454;-70
2023/09/27 05:12:54;;;;;;;9.43;5.20;;;10.90;98.00;;;;;;4975929;28;20509;-69
2023/09/27 05:15:21;;;;;;;8.73;4.80;;;10.80;98.00;;;;;;4975905;28;20446;-71
2023/09/27 05:17:48;;;;;;;8.43;4.63;;;10.60;98.00;;;;;;4958675;28;20453;-71
2023/09/27 05:20:15;;;;;;;8.00;4.40;;;10.50;98.00;;;;;;4975870;28;20454;-70
2023/09/27 05:22:44;;;;;;;8.40;4.80;;;10.60;98.00;;;;;;4976057;28;20459;-71
2023/09/27 05:25:11;;;;;;;7.80;4.57;;;10.60;98.00;;;;;;4975985;28;20451;-69
2023/09/27 05:27:38;;;;;;;8.10;4.73;;;10.50;98.00;;;;;;4975591;28;20486;-69
2023/09/27 05:30:08;;;;;;;9.07;4.00;;;10.50;98.00;;;;;;4975580;28;20453;-69
2023/09/27 05:32:36;;;;;;;8.47;4.30;;;10.90;98.00;;;;;;4975722;28;21013;-71
2023/09/27 05:35:04;;;;;;;8.80;4.53;;;11.10;98.00;;;;;;4975840;28;20453;-71
2023/09/27 05:37:32;;;;;;;10.63;4.90;;;11.00;98.00;;;;;;4975675;28;20465;-70
2023/09/27 05:40:04;;;;;;;8.93;4.50;;;11.10;98.00;;;;;;4958505;28;20474;-70
2023/09/27 05:42:31;;;;;;;12.10;4.67;;;10.90;98.00;;;;;;4958667;28;20455;-70
2023/09/27 05:44:58;;;;;;;11.70;4.83;;;10.80;98.00;;;;;;4975693;28;20877;-70
2023/09/27 05:47:26;;;;;;;8.77;4.33;;;10.80;98.00;;;;;;4957700;28;20502;-68
2023/09/27 05:49:54;;;;;;;10.80;5.20;;;11.00;98.00;;;;;;4958563;28;20521;-67
2023/09/27 05:52:22;;;;;;;7.93;4.40;;;10.90;98.00;;;;;;4975539;28;20493;-69
2023/09/27 05:54:51;;;;;;;16.27;7.33;;;11.00;98.00;;;;;;4975492;28;20456;-68
2023/09/27 05:57:20;;;;;;;8.97;4.90;;;11.00;98.00;;;;;;4975281;28;20482;-70
2023/09/27 05:59:47;;;;;;;9.60;4.63;;;11.00;98.00;;;;;;4975448;28;20468;-72
2023/09/27 06:02:16;;;;;;;9.40;4.90;;;10.90;98.00;;;;;;4975387;28;20457;-73
2023/09/27 06:04:43;;;;;;;14.87;5.20;;;10.90;98.00;;;;;;4975567;28;20461;-72
2023/09/27 06:07:13;;;;;;;9.80;4.70;;;11.00;98.00;;;;;;4975112;28;20469;-73
2023/09/27 06:09:41;;;;;;;8.60;4.70;;;11.10;98.00;;;;;;4958999;28;20459;-73
2023/09/27 06:12:08;;;;;;;14.83;5.07;;;11.10;98.00;;;;;;4975046;28;20455;-72
2023/09/27 06:14:38;;;;;;;8.20;4.40;;;11.30;98.00;;;;;;4975259;28;20465;-72
2023/09/27 06:17:05;;;;;;;6.90;4.30;;;11.30;98.00;;;;;;4975167;28;20514;-72
2023/09/27 06:19:33;;;;;;;8.60;5.10;;;11.40;98.00;;;;;;4975338;28;20886;-73
2023/09/27 06:22:00;;;;;;;13.47;4.67;;;11.50;98.00;;;;;;4974286;28;20467;-72
2023/09/27 06:24:27;;;;;;;9.90;5.17;;;11.60;98.00;;;;;;4958027;28;20460;-72
2023/09/27 06:26:55;;;;;;;9.03;4.37;;;11.70;98.00;;;;;;4974766;28;20459;-72
2023/09/27 06:29:22;;;;;;;9.43;5.37;;;11.70;98.00;;;;;;4974913;28;20492;-72
2023/09/27 06:31:51;;;;;;;9.40;5.40;;;11.70;98.00;;;;;;4974933;28;20819;-73
2023/09/27 06:36:56;;;;;;;12.07;5.83;;;11.70;98.00;;;;;;5208349;22;20537;-74
2023/09/27 06:39:24;;;;;;;9.67;5.27;;;11.70;98.00;;;;;;5013322;28;20515;-72
2023/09/27 06:41:52;;;;;;;9.40;4.90;;;11.60;98.00;;;;;;5013426;28;20943;-72
2023/09/27 06:44:21;;;;;;;8.33;4.70;;;11.60;98.00;;;;;;5013299;28;20453;-72
2023/09/27 06:46:49;;;;;;;9.47;5.23;;;11.70;98.00;;;;;;5013313;28;20462;-72
2023/09/27 06:49:18;;;;;;;8.90;5.03;;;11.70;98.00;;;;;;5012988;28;20492;-72
2023/09/27 06:51:45;;;;;;;8.63;4.93;;;11.70;98.00;;;;;;5012938;28;20472;-72
2023/09/27 06:54:12;;;;;;;9.40;4.93;;;11.90;98.00;;;;;;5012824;28;20454;-72
2023/09/27 06:56:40;;;;;;;9.23;5.03;;;12.00;98.00;;;;;;5012639;28;20492;-72
2023/09/27 06:59:07;;;;;;;8.53;4.97;;;12.20;98.00;;;;;;5011446;28;20454;-72
2023/09/27 07:01:37;;;;;;;15.70;5.53;;;12.20;98.00;;;;;;5012295;28;20458;-72
2023/09/27 07:04:05;;;;;;;10.60;5.40;;;12.30;98.00;;;;;;5012265;28;20463;-72
2023/09/27 07:06:35;;;;;;;12.00;5.53;;;12.20;98.00;;;;;;5012268;28;20446;-72
2023/09/27 07:09:04;;;;;;;10.37;5.37;;;12.30;98.00;;;;;;5012649;28;21022;-72
2023/09/27 07:11:31;;;;;;;11.20;5.60;;;12.40;98.00;;;;;;5012293;28;20465;-72
2023/09/27 07:13:59;;;;;;;12.63;5.80;;;12.30;98.00;;;;;;4994539;28;20457;-73
2023/09/27 07:16:27;;;;;;;13.03;5.90;;;12.30;98.00;;;;;;5012110;28;20948;-74
2023/09/27 07:18:54;;;;;;;10.87;5.67;;;12.40;98.00;;;;;;5012270;28;20523;-74
2023/09/27 07:21:22;;;;;;;9.17;5.17;;;12.40;98.00;;;;;;5012574;28;20457;-73
2023/09/27 07:23:53;;;;;;;15.27;6.40;;;12.40;98.00;;;;;;5012714;28;20541;-70
2023/09/27 07:26:21;;;;;;;10.80;5.80;;;12.50;98.00;;;;;;5011318;28;20481;-70
2023/09/27 07:28:51;;;;;;;10.57;5.50;;;12.60;98.00;;;;;;5012474;28;21045;-70
2023/09/27 07:31:18;;;;;;;11.00;5.50;;;12.80;98.00;;;;;;5012709;28;20474;-70
2023/09/27 07:33:47;;;;;;;10.70;5.40;;;12.90;98.00;;;;;;5012658;28;20447;-69
2023/09/27 07:36:16;;;;;;;12.77;6.17;;;13.10;98.00;;;;;;4995255;28;20884;-70
2023/09/27 07:38:43;;;;;;;12.83;6.50;;;13.50;98.00;;;;;;4994856;28;20459;-70
2023/09/27 07:41:11;;;;;;;14.63;6.20;;;13.70;98.00;;;;;;5011860;28;21007;-71
2023/09/27 07:43:38;;;;;;;10.83;6.03;;;13.70;98.00;;;;;;5012115;28;20467;-71
2023/09/27 07:46:06;;;;;;;10.97;5.93;;;13.90;98.00;;;;;;5011941;28;20869;-70
2023/09/27 07:48:35;;;;;;;9.63;5.30;;;14.00;98.00;;;;;;5011577;28;20574;-70
2023/09/27 07:51:02;;;;;;;13.27;6.80;;;14.30;98.00;;;;;;5011605;28;20545;-71
2023/09/27 07:53:31;;;;;;;13.87;6.47;;;14.50;98.00;;;;;;5011421;28;20457;-68
2023/09/27 07:55:59;;;;;;;12.03;6.10;;;14.70;98.00;;;;;;5011547;28;20493;-69
2023/09/27 07:58:27;;;;;;;13.60;6.23;;;14.80;98.00;;;;;;4994263;28;20506;-68
2023/09/27 08:00:54;;;;;;;9.93;5.43;;;14.90;98.00;;;;;;5011581;28;20470;-68
2023/09/27 08:03:21;;;;;;;12.00;6.13;;;15.10;98.00;;;;;;4994143;28;20459;-67
2023/09/27 08:05:49;;;;;;;12.03;5.77;;;15.20;98.00;;;;;;5011421;28;20503;-67
2023/09/27 08:08:16;;;;;;;9.70;5.37;;;15.30;98.00;;;;;;5011005;28;20487;-68
2023/09/27 08:10:45;;;;;;;12.80;6.60;;;15.40;98.00;;;;;;5011067;28;20459;-61
2023/09/27 08:13:13;;;;;;;13.27;6.87;;;15.50;98.00;;;;;;5011226;28;20448;-68
2023/09/27 08:15:43;;;;;;;13.27;6.40;;;15.60;98.00;;;;;;4993916;28;20976;-68
2023/09/27 08:18:10;;;;;;;12.30;5.60;;;15.60;98.00;;;;;;5011369;28;20450;-68
2023/09/27 08:20:37;;;;;;;13.20;6.10;;;15.70;98.00;;;;;;5011202;28;20455;-68
2023/09/27 08:23:05;;;;;;;8.83;5.27;;;15.90;98.00;;;;;;5011375;28;20818;-70
2023/09/27 08:25:32;;;;;;;14.73;6.70;;;16.10;98.00;;;;;;5011014;28;20961;-66
2023/09/27 08:28:01;;;;;;;11.03;6.00;;;16.40;98.00;;;;;;5010978;28;20613;-68
2023/09/27 08:30:28;;;;;;;11.90;6.33;;;16.60;98.00;;;;;;5011251;28;20451;-68
2023/09/27 08:32:58;;;;;;;11.50;5.83;;;16.70;98.00;;;;;;5011061;28;20459;-68
2023/09/27 08:35:25;;;;;;;11.57;6.20;;;17.00;98.00;;;;;;5011013;28;20464;-69
2023/09/27 08:37:52;;;;;;;12.37;6.00;;;17.10;98.00;;;;;;4993434;28;20463;-68
2023/09/27 08:40:29;;;;;;;11.80;6.10;;;17.10;98.00;;;;;;4993754;28;20452;-65
2023/09/27 08:42:58;;;;;;;10.83;6.10;;;17.10;98.00;;;;;;4994898;28;20555;-66
2023/09/27 08:45:26;;;;;;;9.77;5.83;;;17.20;98.00;;;;;;4999401;28;20508;-68
2023/09/27 08:47:54;;;;;;;9.13;5.60;;;17.40;98.00;;;;;;4991333;28;20448;-72
2023/09/27 08:50:23;;;;;;;12.50;5.90;;;17.60;98.00;;;;;;4991900;28;20460;-71
2023/09/27 08:52:51;;;;;;;9.23;5.40;;;17.80;98.00;;;;;;4991670;28;20460;-71
2023/09/27 08:55:20;;;;;;;12.90;6.47;;;17.90;98.00;;;;;;4991394;28;20822;-71
2023/09/27 08:57:51;;;;;;;12.13;6.17;;;18.10;98.00;;;;;;5008638;28;20521;-72
2023/09/27 09:00:21;;;;;;;12.23;6.10;;;18.30;98.00;;;;;;5011280;28;20448;-71
2023/09/27 09:02:52;;;;;;;10.97;6.10;;;18.40;98.00;;;;;;5012143;28;20458;-71
2023/09/27 09:05:18;;;;;;;11.43;6.00;;;18.60;98.00;;;;;;5011798;28;20455;-70
2023/09/27 09:07:50;;;;;;;9.13;5.23;;;18.80;98.00;;;;;;5010879;28;20490;-70
2023/09/27 09:10:18;;;;;;;10.57;5.20;;;18.90;98.00;;;;;;4994271;28;20498;-71
2023/09/27 09:12:47;;;;;;;13.93;6.20;;;19.10;98.00;;;;;;5011351;28;20451;-70
2023/09/27 09:15:30;;;;;;;11.07;4.90;;;19.40;98.00;;;;;;5010871;28;20464;-71
2023/09/27 09:17:58;;;;;;;8.70;4.90;;;19.50;98.00;;;;;;5010768;28;20444;-71
2023/09/27 09:20:32;;;;;;;9.67;5.10;;;19.70;98.00;;;;;;5011001;28;20547;-71
2023/09/27 09:23:06;;;;;;;8.77;5.43;;;19.90;98.00;;;;;;5013581;28;20805;-71
2023/09/27 09:25:43;;;;;;;9.00;5.10;;;20.20;98.00;;;;;;5014490;28;20737;-71
2023/09/27 09:28:13;;;;;;;8.83;5.10;;;20.40;98.00;;;;;;4996798;28;20450;-71
2023/09/27 09:30:43;;;;;;;10.43;5.80;;;20.60;98.00;;;;;;5014153;28;20466;-71
2023/09/27 09:33:12;;;;;;;10.00;4.70;;;20.80;98.00;;;;;;5014070;28;20455;-71
2023/09/27 09:35:39;;;;;;;9.33;5.20;;;21.00;98.00;;;;;;5014142;28;20530;-71
2023/09/27 09:38:07;;;;;;;8.60;4.90;;;21.20;98.00;;;;;;4978971;28;20448;-72
2023/09/27 09:40:53;;;;;;;8.47;4.90;;;21.30;98.00;;;;;;5007896;28;20454;-72
2023/09/27 09:43:29;;;;;;;8.10;4.90;;;21.50;98.00;;;;;;4996441;28;20460;-71
2023/09/27 09:45:57;;;;;;;8.80;4.80;;;21.60;98.00;;;;;;5014478;28;20447;-72
2023/09/27 09:48:24;;;;;;;7.40;4.60;;;21.70;98.00;;;;;;5013943;28;20579;-72
2023/09/27 09:50:52;;;;;;;6.73;4.53;;;22.00;98.00;;;;;;5013953;28;20460;-71
2023/09/27 09:53:21;;;;;;;8.87;5.00;;;22.30;98.00;;;;;;5013896;28;20451;-72
2023/09/27 09:55:50;;;;;;;6.20;4.13;;;22.60;98.00;;;;;;5013635;28;20455;-73
2023/09/27 09:58:25;;;;;;;7.40;4.47;;;22.80;98.00;;;;;;5013769;28;20534;-71
2023/09/27 10:00:55;;;;;;;9.10;4.80;;;23.00;98.00;;;;;;5013705;28;20881;-72
2023/09/27 10:03:25;;;;;;;7.97;4.37;;;23.20;98.00;;;;;;5013484;28;20452;-72
2023/09/27 10:05:53;;;;;;;9.03;4.33;;;23.40;98.00;;;;;;5013438;28;20462;-71
2023/09/27 10:08:24;;;;;;;7.70;4.43;;;23.60;98.00;;;;;;5013213;28;20953;-71
2023/09/27 10:10:51;;;;;;;7.50;4.73;;;23.80;98.00;;;;;;5013357;28;20510;-71
2023/09/27 10:13:27;;;;;;;9.40;5.23;;;24.10;98.00;;;;;;5013207;28;20471;-72
2023/09/27 10:15:54;;;;;;;8.03;4.90;;;24.20;98.00;;;;;;5013236;28;20451;-72
2023/09/27 10:18:33;;;;;;;8.53;4.90;;;24.50;98.00;;;;;;5013226;28;20452;-72
2023/09/27 10:21:08;;;;;;;7.13;4.50;;;24.70;98.00;;;;;;5013131;28;20525;-72
2023/09/27 10:23:53;;;;;;;7.97;4.70;;;24.90;98.00;;;;;;5012972;28;20498;-71
2023/09/27 10:26:23;;;;;;;7.10;4.30;;;25.00;98.00;;;;;;5012792;28;20489;-72
2023/09/27 10:29:15;;;;;;;7.00;4.57;;;25.20;98.00;;;;;;5012940;28;20577;-72
2023/09/27 10:32:22;;;;;;;7.80;4.13;;;25.40;98.00;;;;;;5012862;28;20514;-72
2023/09/27 10:34:51;;;;;;;5.60;3.90;;;25.60;98.00;;;;;;5012911;28;20464;-71
2023/09/27 10:38:00;;;;;;;8.50;4.47;;;25.80;98.00;;;;;;5012593;28;20460;-73
2023/09/27 10:40:28;;;;;;;4.93;3.60;;;26.10;98.00;;;;;;5012792;28;20526;-73
2023/09/27 10:42:56;;;;;;;7.27;4.00;;;26.20;98.00;;;;;;5012601;28;20455;-72
2023/09/27 10:45:23;;;;;;;5.37;4.07;;;26.10;98.00;;;;;;5012897;28;20510;-72
2023/09/27 10:47:52;;;;;;;5.50;4.00;;;26.40;98.00;;;;;;5012792;28;20534;-72
2023/09/27 10:50:30;;;;;;;6.03;3.73;;;26.60;98.00;;;;;;5012765;28;21045;-72
2023/09/27 10:52:59;;;;;;;8.83;4.33;;;26.80;98.00;;;;;;5012638;28;20459;-72
2023/09/27 10:55:26;;;;;;;5.33;4.00;;;27.00;98.00;;;;;;5012486;28;20547;-73
2023/09/27 10:57:55;;;;;;;5.70;4.10;;;27.20;97.80;;;;;;4994948;28;20801;-72
2023/09/27 11:00:22;;;;;;;4.87;3.60;;;27.40;98.00;;;;;;5012522;28;20455;-72
2023/09/27 11:02:51;;;;;;;4.83;3.60;;;27.60;98.00;;;;;;5012224;28;20451;-72
2023/09/27 11:05:25;;;;;;;4.17;3.13;;;27.90;95.90;;;;;;4978691;28;20452;-73
2023/09/27 11:07:52;;;;;;;4.50;3.10;;;28.10;93.40;;;;;;5012159;28;20877;-73
2023/09/27 11:10:31;;;;;;;4.80;3.23;;;28.30;93.70;;;;;;5012292;28;20561;-71
2023/09/27 11:13:17;;;;;;;4.23;2.97;;;28.50;90.50;;;;;;5012338;28;20479;-71
2023/09/27 11:15:44;;;;;;;4.30;3.27;;;28.70;89.90;;;;;;5012174;28;20538;-71
2023/09/27 11:18:12;;;;;;;5.20;3.40;;;29.00;89.10;;;;;;5012268;28;20462;-71
2023/09/27 11:20:40;;;;;;;5.00;3.73;;;29.10;90.90;;;;;;5012273;28;20459;-72
2023/09/27 11:23:07;;;;;;;3.27;2.80;;;29.30;90.50;;;;;;4994756;28;20456;-72
2023/09/27 11:25:37;;;;;;;4.07;2.90;;;29.40;86.00;;;;;;4994834;28;20447;-72
2023/09/27 11:28:05;;;;;;;3.47;2.63;;;29.40;84.20;;;;;;4994811;28;20534;-73
2023/09/27 11:30:35;;;;;;;3.83;2.83;;;29.60;83.00;;;;;;5012138;28;20692;-72
2023/09/27 11:33:04;;;;;;;5.57;3.00;;;29.90;84.90;;;;;;5012265;28;20459;-72
2023/09/27 11:35:33;;;;;;;4.10;3.17;;;30.10;83.70;;;;;;5011911;28;20461;-72
2023/09/27 11:38:10;;;;;;;5.10;3.70;;;30.30;83.10;;;;;;4993785;28;20783;-73
2023/09/27 11:40:38;;;;;;;5.87;3.60;;;30.60;85.80;;;;;;5011744;28;20455;-72
2023/09/27 11:43:05;;;;;;;5.10;3.57;;;30.80;85.30;;;;;;5011893;28;20475;-72
2023/09/27 11:45:44;;;;;;;5.17;3.30;;;30.80;84.20;;;;;;5011043;28;20458;-72
2023/09/27 11:48:12;;;;;;;4.80;3.17;;;30.70;86.10;;;;;;5011691;28;20458;-72
2023/09/27 11:50:39;;;;;;;4.37;2.90;;;30.80;84.70;;;;;;5011494;28;20494;-71
2023/09/27 11:53:06;;;;;;;4.40;3.23;;;30.80;83.10;;;;;;5011633;28;20459;-72
2023/09/27 11:55:35;;;;;;;5.03;2.83;;;30.70;83.60;;;;;;5011420;28;20498;-72
2023/09/27 11:58:02;;;;;;;3.93;2.83;;;30.80;83.80;;;;;;5011347;28;21015;-72
2023/09/27 12:00:30;;;;;;;4.60;3.10;;;31.00;81.20;;;;;;5011350;28;20847;-72
2023/09/27 12:03:00;;;;;;;3.90;3.10;;;31.10;80.70;;;;;;5011292;28;20448;-72
2023/09/27 12:05:27;;;;;;;3.50;3.07;;;31.10;81.90;;;;;;5011588;28;20456;-72
2023/09/27 12:07:54;;;;;;;4.50;3.13;;;31.40;81.00;;;;;;5011226;28;20858;-72
2023/09/27 12:10:22;;;;;;;4.23;3.10;;;31.50;80.10;;;;;;4993803;28;20483;-71
2023/09/27 12:12:49;;;;;;;3.77;3.10;;;31.60;80.90;;;;;;4993848;28;20456;-72
2023/09/27 12:15:16;;;;;;;5.33;3.23;;;31.70;80.70;;;;;;5011066;28;20517;-71
2023/09/27 12:17:43;;;;;;;4.87;3.20;;;31.90;82.70;;;;;;4993477;28;20452;-71
2023/09/27 12:20:13;;;;;;;4.33;3.10;;;31.90;81.50;;;;;;5011601;28;20529;-68
2023/09/27 12:22:40;;;;;;;7.70;3.50;;;32.00;81.90;;;;;;5011806;28;20550;-71
2023/09/27 12:25:08;;;;;;;4.03;3.33;;;32.10;80.90;;;;;;4994575;28;20818;-71
2023/09/27 12:27:35;;;;;;;4.83;3.47;;;32.10;82.40;;;;;;5011131;28;20942;-72
2023/09/27 12:30:05;;;;;;;4.20;3.30;;;32.00;80.80;;;;;;5011665;28;20487;-71
2023/09/27 12:32:32;;;;;;;4.97;3.53;;;32.00;80.70;;;;;;5012199;28;20451;-72
2023/09/27 12:34:59;;;;;;;4.30;3.37;;;32.10;81.30;;;;;;5011898;28;20447;-72
2023/09/27 12:37:29;;;;;;;3.83;3.23;;;32.20;80.30;;;;;;4994305;28;20447;-72
2023/09/27 12:39:56;;;;;;;5.03;3.53;;;31.80;80.20;;;;;;5011852;28;20451;-72
2023/09/27 12:42:23;;;;;;;4.40;3.27;;;31.90;78.80;;;;;;5011808;28;20454;-72
2023/09/27 12:44:51;;;;;;;5.47;3.50;;;32.00;80.20;;;;;;5012000;28;20470;-72
2023/09/27 12:47:18;;;;;;;6.77;3.13;;;32.00;80.90;;;;;;4994487;28;20505;-72
2023/09/27 12:49:45;;;;;;;4.20;3.17;;;32.20;79.50;;;;;;4994620;28;20479;-72
2023/09/27 12:52:13;;;;;;;3.83;2.93;;;32.40;79.20;;;;;;5011973;28;20993;-72
2023/09/27 12:54:44;;;;;;;4.47;3.13;;;32.50;77.90;;;;;;5011946;28;20524;-72
2023/09/27 12:57:11;;;;;;;4.97;3.37;;;32.60;78.50;;;;;;5015190;28;20462;-71